KBLU/BLU METAR and TAF weather

Enter ICAO airport designator
Station Type Date Time Source
KBLU METAR 2020/09/26 10:52 UTC NOAA

KBLU 261052Z AUTO 01005KT 5SM HZ CLR 15/04 A3022 RMK AO2 SLP151 T01500039


Station Type Date Time Source
KBLU Decoded METAR 2020/09/26 10:52 UTC NOAA

BLUE CANYON AIRPORT, CA, United States (KBLU) 39-17N 120-42W 1609M
Sep 26, 2020 - 06:52 AM EDT / 2020.09.26 1052 UTC
Wind: from the N (010 degrees) at 6 MPH (5 KT):0
Visibility: 5 mile(s):0
Sky conditions: clear
Weather: haze
Temperature: 59.0 F (15.0 C)
Dew Point: 39.0 F (3.9 C)
Relative Humidity: 47%
Pressure (altimeter): 30.22 in. Hg (1023 hPa)
ob: KBLU 261052Z AUTO 01005KT 5SM HZ CLR 15/04 A3022 RMK AO2 SLP151 T01500039
cycle: 11

Station Type Date Time Source
KBLU TAF UTC NOAA

Error!

Example: see airport list